Archer, Wyoming
Current Conditions -  °F | °C
As of 8:53 AM on Friday 28 Nov 2014 (Local Time) from KCYS Reporting Station
Clear Clear  
Wind Chill: 54°   Ceiling: Unl
Heat Index: 54°   Visibility: 10mi
Dew Point: 12°   Wind: 21mph
Humidity: 19%   Direction: 270°W
Pressure: 29.92"   Gusts: NA
Location:  41.4091°N, 104.861°W
Report Text: KCYS 281553Z 27018KT 10SM CLR 12/M11 A2992 RMK AO2 SLP081 T01221111
Loading
Personal Weather Stations






























Interactive Weather Map New forecast layout! Learn more

10-Day Weather Forecast

Advertisements
Track Severe Weather on mobile